Flight Track Log - Related Links

Times and Time Zones

All times are in EDT time to prevent confusion due to time zone crossing. See the N5251Z flight status page for this flight to view local times or setup timezone preferences in your user account.

Time Position Orientation Groundspeed Altitude Reporting Facility
EDT Latitude Longitude Course Direction KTS MPH feet Rate Location/Type
Mon 09:01:58 AM 42.2714 -83.5661 347° North 82 94 2,600  Level Cleveland Center
Mon 09:02:59 AM 42.2600 -83.5992 245° Southwest 111 128 3,000 197 Climbing Cleveland Center
Mon 09:04:00 AM 42.2467 -83.6378 245° Southwest 108 124 3,000  Level Cleveland Center
Mon 09:05:01 AM 42.2331 -83.6736 243° Southwest 110 127 3,000  Level Cleveland Center
Mon 09:06:00 AM 42.2393 -83.5310 347° North  Level Estimated
Mon 09:07:00 AM 42.2449 -83.5327 347° North  Level FlightAware Approximate
Mon 09:07:00 AM 42.2331 -83.6581 90° East  Level FlightAware Approximate
Mon 09:10:09 AM 42.2042 -83.8881 154° Southeast 114 131 3,000  Level Cleveland Center
Mon 09:11:07 AM 42.2011 -83.9272 264° West 112 129 3,000  Level Cleveland Center
Mon 09:13:08 AM 42.1764 -83.9819 239° Southwest 104 120 3,000  Level Cleveland Center
Mon 09:14:00 AM 42.2358 -83.6036 154° Southeast  Level Estimated
Mon 09:14:09 AM 42.1472 -83.9833 182° South 101 116 3,000  Level Cleveland Center
Mon 09:15:00 AM 42.2361 -83.5958 154° Southeast  Level Estimated
Mon 09:15:09 AM 42.1333 -83.9600 129° Southeast 98 113 3,000  Level Cleveland Center
Mon 09:17:00 AM 42.1367 -83.9463 71° East  Level Estimated
Mon 09:18:11 AM 42.1633 -83.8581 71° East 96 110 2,700  Level Cleveland Center
Mon 09:19:12 AM 42.1786 -83.8308 53° Northeast 95 109 2,100 -581 Descending Cleveland Center
Mon 09:20:15 AM 42.1897 -83.8061 59° Northeast 83 96 1,500 -397 Descending Cleveland Center
Mon 09:21:13 AM 42.2050 -83.7817 50° Northeast 80 92 1,300 -101 Descending Cleveland Center
Mon 09:22:14 AM 42.2206 -83.7517 55° Northeast 85 98 1,300 452 Level Cleveland Center
Mon 09:24:19 AM 42.2647 -83.7425 North 94 108 2,700 551 Climbing Cleveland Center
Mon 09:25:19 AM 42.2919 -83.7328 15° North 101 116 3,000 99 Climbing Cleveland Center
Mon 09:27:21 AM 42.3347 -83.6956 33° Northeast 98 113 3,000  Level Cleveland Center
Mon 09:28:22 AM 42.3522 -83.6656 52° Northeast 95 109 3,000  Level Cleveland Center
Mon 09:30:24 AM 42.3706 -83.6017 69° East 91 105 3,000  Level Cleveland Center
Mon 09:31:24 AM 42.3544 -83.5756 130° Southeast 98 113 3,000 -198 Level Cleveland Center
Mon 09:32:25 AM 42.3319 -83.5606 154° Southeast 86 99 2,600 -331 Descending Cleveland Center
Mon 09:34:25 AM 42.2847 -83.5386 161° South 92 106 2,000 -300 Descending Cleveland Center

Login

Don't have an account? Register now (free) for customized features, flight alerts, and more!